createdAt,value
2023-09-06T00:05:11.101Z,40.23
2023-09-06T00:08:15.762Z,40.33
2023-09-06T00:11:18.257Z,40.49
2023-09-06T00:14:21.713Z,40.33
2023-09-06T00:17:24.287Z,40.43
2023-09-06T00:20:26.711Z,40.42
2023-09-06T00:23:31.110Z,40.33
2023-09-06T00:26:33.652Z,40.61
2023-09-06T00:29:36.176Z,40.25
2023-09-06T00:32:38.646Z,40.62
2023-09-06T00:35:41.109Z,40.40
2023-09-06T00:38:44.865Z,40.40
2023-09-06T00:41:47.254Z,40.62
2023-09-06T00:44:49.684Z,40.58
2023-09-06T00:47:52.242Z,40.34
2023-09-06T00:50:55.583Z,40.28
2023-09-06T00:54:01.621Z,40.28
2023-09-06T00:57:04.419Z,40.17
2023-09-06T01:00:09.435Z,40.16
2023-09-06T01:03:12.152Z,40.25
2023-09-06T01:06:17.481Z,40.36
2023-09-06T01:09:21.247Z,40.29
2023-09-06T01:12:24.191Z,40.10
2023-09-06T01:15:26.771Z,40.13
2023-09-06T01:18:29.852Z,40.33
2023-09-06T01:21:33.838Z,40.37
2023-09-06T01:24:37.650Z,40.43
2023-09-06T01:27:40.177Z,40.28
2023-09-06T01:30:42.855Z,40.24
2023-09-06T01:33:45.518Z,40.24
2023-09-06T01:36:47.970Z,40.49
2023-09-06T01:39:51.801Z,40.45
2023-09-06T01:42:55.122Z,40.33
2023-09-06T01:45:57.616Z,40.40
2023-09-06T01:49:00.980Z,40.25
2023-09-06T01:52:06.374Z,40.26
2023-09-06T01:55:10.732Z,40.34
2023-09-06T01:58:13.441Z,40.25
2023-09-06T02:01:16.218Z,40.20
2023-09-06T02:04:18.693Z,40.32
2023-09-06T02:07:21.113Z,40.19
2023-09-06T02:10:25.234Z,40.18
2023-09-06T02:13:27.638Z,40.34
2023-09-06T02:16:31.204Z,40.29
2023-09-06T02:19:33.709Z,40.24
2023-09-06T02:22:37.173Z,40.25
2023-09-06T02:25:40.924Z,40.33
2023-09-06T02:28:43.305Z,40.32
2023-09-06T02:31:46.659Z,40.28
2023-09-06T02:34:49.094Z,40.37
2023-09-06T02:37:51.550Z,40.21
2023-09-06T02:40:55.316Z,40.23
2023-09-06T02:43:57.729Z,40.52
2023-09-06T02:47:02.135Z,40.17
2023-09-06T02:50:07.268Z,40.60
2023-09-06T02:53:20.911Z,40.56
2023-09-06T02:56:25.225Z,40.27
2023-09-06T02:59:29.322Z,40.25
2023-09-06T03:02:31.813Z,40.07
2023-09-06T03:05:35.945Z,40.42
2023-09-06T03:08:38.375Z,40.43
2023-09-06T03:11:42.140Z,40.35
2023-09-06T03:14:45.670Z,40.27
2023-09-06T03:17:48.304Z,40.41
2023-09-06T03:20:50.885Z,40.28
2023-09-06T03:23:53.911Z,40.14
2023-09-06T03:26:59.315Z,40.07
2023-09-06T03:30:01.781Z,40.19
2023-09-06T03:33:06.304Z,40.15
2023-09-06T03:36:10.605Z,40.42
2023-09-06T03:39:15.504Z,40.40
2023-09-06T03:42:19.797Z,40.25
2023-09-06T03:45:25.249Z,40.19
2023-09-06T03:48:29.667Z,40.57
2023-09-06T03:51:32.620Z,40.41
2023-09-06T03:54:35.406Z,40.50
2023-09-06T03:57:39.835Z,40.51
2023-09-06T04:00:44.715Z,40.24
2023-09-06T04:03:51.731Z,40.69
2023-09-06T04:06:54.390Z,40.96
2023-09-06T04:09:57.735Z,40.99
2023-09-06T04:13:01.583Z,41.38
2023-09-06T04:16:06.942Z,41.48
2023-09-06T04:19:09.775Z,41.31
2023-09-06T04:22:14.155Z,41.18
2023-09-06T04:25:20.139Z,41.68
2023-09-06T04:28:23.908Z,41.43
2023-09-06T04:31:26.413Z,41.53
2023-09-06T04:34:28.909Z,41.55
2023-09-06T04:37:31.370Z,41.61
2023-09-06T04:40:33.750Z,41.88
2023-09-06T04:43:37.518Z,42.07
2023-09-06T04:46:39.942Z,41.96
2023-09-06T04:49:43.712Z,42.09
2023-09-06T04:52:47.059Z,42.50
2023-09-06T04:55:50.574Z,42.42
2023-09-06T04:58:54.722Z,42.55
2023-09-06T05:01:57.163Z,42.64
2023-09-06T05:05:00.455Z,42.80
2023-09-06T05:08:04.432Z,42.83
2023-09-06T05:11:07.823Z,42.72
2023-09-06T05:14:11.830Z,43.03
2023-09-06T05:17:14.272Z,43.06
2023-09-06T05:20:27.337Z,43.15
2023-09-06T05:23:30.017Z,43.08
2023-09-06T05:26:34.683Z,42.77
2023-09-06T05:29:38.393Z,42.86
2023-09-06T05:32:40.829Z,42.70
2023-09-06T05:35:43.843Z,42.95
2023-09-06T05:38:46.261Z,42.92
2023-09-06T05:41:48.666Z,42.93
2023-09-06T05:44:52.383Z,42.63
2023-09-06T05:47:54.944Z,42.99
2023-09-06T05:50:57.495Z,42.91
2023-09-06T05:54:01.725Z,42.75
2023-09-06T05:57:05.694Z,42.79
2023-09-06T06:00:16.699Z,42.90
2023-09-06T06:03:20.256Z,42.66
2023-09-06T06:06:23.802Z,42.78
2023-09-06T06:09:28.758Z,42.79
2023-09-06T06:12:31.191Z,42.89
2023-09-06T06:15:35.959Z,43.04
2023-09-06T06:18:38.384Z,42.96
2023-09-06T06:21:40.884Z,42.65
2023-09-06T06:24:45.073Z,43.02
2023-09-06T06:27:48.242Z,42.70
2023-09-06T06:30:52.346Z,43.10
2023-09-06T06:33:54.944Z,42.66
2023-09-06T06:36:57.392Z,42.84
2023-09-06T06:40:00.597Z,42.73
2023-09-06T06:43:03.050Z,42.68
2023-09-06T06:46:06.913Z,43.01
2023-09-06T06:49:10.069Z,43.01
2023-09-06T06:52:12.551Z,42.68
2023-09-06T06:55:16.630Z,42.79
2023-09-06T06:58:19.155Z,42.90
2023-09-06T07:01:25.381Z,42.80
2023-09-06T07:04:27.887Z,43.02
2023-09-06T07:07:30.324Z,42.98
2023-09-06T07:10:32.755Z,43.00
2023-09-06T07:13:35.760Z,42.77
2023-09-06T07:16:40.837Z,42.79
2023-09-06T07:19:43.818Z,42.62
2023-09-06T07:22:46.215Z,42.95
2023-09-06T07:25:49.454Z,42.72
2023-09-06T07:28:52.154Z,42.89
2023-09-06T07:31:55.951Z,43.04
2023-09-06T07:34:58.373Z,42.61
2023-09-06T07:38:00.790Z,42.74
2023-09-06T07:41:04.170Z,42.92
2023-09-06T07:44:06.604Z,42.82
2023-09-06T07:47:10.525Z,42.63
2023-09-06T07:50:13.099Z,42.79
2023-09-06T07:53:15.544Z,42.58
2023-09-06T07:56:18.001Z,42.69
2023-09-06T07:59:22.717Z,42.99
2023-09-06T08:02:26.496Z,42.68
2023-09-06T08:05:28.886Z,42.62
2023-09-06T08:08:31.596Z,42.83
2023-09-06T08:11:34.222Z,42.79
2023-09-06T08:14:36.655Z,42.89
2023-09-06T08:17:40.639Z,42.59
2023-09-06T08:20:43.077Z,42.77
2023-09-06T08:23:45.530Z,42.92
2023-09-06T08:26:49.260Z,42.75
2023-09-06T08:29:51.817Z,42.63
2023-09-06T08:32:57.076Z,42.54
2023-09-06T08:36:00.493Z,42.50
2023-09-06T08:39:04.195Z,42.52
2023-09-06T08:42:07.533Z,42.61
2023-09-06T08:45:10.341Z,42.50
2023-09-06T08:48:14.265Z,42.59
2023-09-06T08:51:16.713Z,42.48
2023-09-06T08:54:19.176Z,42.76
2023-09-06T08:57:21.762Z,42.67
2023-09-06T09:00:25.052Z,42.66
2023-09-06T09:03:29.519Z,42.73
2023-09-06T09:06:33.052Z,42.65
2023-09-06T09:09:35.510Z,42.59
2023-09-06T09:12:38.931Z,42.85
2023-09-06T09:15:41.366Z,42.77
2023-09-06T09:18:45.716Z,42.88
2023-09-06T09:21:48.228Z,42.78
2023-09-06T09:24:50.792Z,42.72
2023-09-06T09:27:57.316Z,42.83
2023-09-06T09:31:00.054Z,42.68
2023-09-06T09:34:03.832Z,42.88
2023-09-06T09:37:06.892Z,42.68
2023-09-06T09:40:18.911Z,42.49
2023-09-06T09:43:21.642Z,42.80
2023-09-06T09:46:28.184Z,42.55
2023-09-06T09:49:32.099Z,42.90
2023-09-06T09:52:34.538Z,42.70
2023-09-06T09:55:38.071Z,42.63
2023-09-06T09:58:41.233Z,42.80
2023-09-06T10:01:43.732Z,42.90
2023-09-06T10:04:47.907Z,42.72
2023-09-06T10:07:50.419Z,42.84
2023-09-06T10:10:53.137Z,42.73
2023-09-06T10:13:57.535Z,42.87
2023-09-06T10:17:00.169Z,42.67
2023-09-06T10:20:04.244Z,42.77
2023-09-06T10:23:07.918Z,42.49
2023-09-06T10:26:11.080Z,42.62
2023-09-06T10:29:13.564Z,42.59
2023-09-06T10:32:16.004Z,42.66
2023-09-06T10:35:23.173Z,42.57
2023-09-06T10:38:25.598Z,42.58
2023-09-06T10:41:28.205Z,42.65
2023-09-06T10:44:31.179Z,42.69
2023-09-06T10:47:34.974Z,42.58
2023-09-06T10:50:38.899Z,42.75
2023-09-06T10:53:41.557Z,42.74
2023-09-06T10:56:51.554Z,42.72
2023-09-06T10:59:57.624Z,42.51
2023-09-06T11:03:15.997Z,42.70
2023-09-06T11:06:20.165Z,42.77
2023-09-06T11:09:23.452Z,42.54
2023-09-06T11:12:25.875Z,42.75
2023-09-06T11:15:28.416Z,42.89
2023-09-06T11:18:32.363Z,42.52
2023-09-06T11:21:37.393Z,42.71
2023-09-06T11:24:39.941Z,42.87
2023-09-06T11:27:42.350Z,42.63
2023-09-06T11:30:46.257Z,42.57
2023-09-06T11:33:54.395Z,42.58
2023-09-06T11:36:59.000Z,42.58
2023-09-06T11:40:02.367Z,42.69
2023-09-06T11:43:05.763Z,42.68
2023-09-06T11:46:09.877Z,42.58
2023-09-06T11:49:13.069Z,42.66
2023-09-06T11:52:18.214Z,42.72
2023-09-06T11:55:20.682Z,42.77
2023-09-06T11:58:25.147Z,42.76
2023-09-06T12:01:27.995Z,42.45
2023-09-06T12:04:32.648Z,42.62
2023-09-06T12:07:36.464Z,42.52
2023-09-06T12:10:40.046Z,42.77
2023-09-06T12:13:42.610Z,42.69
2023-09-06T12:16:45.081Z,42.66
2023-09-06T12:19:47.761Z,42.69
2023-09-06T12:22:51.694Z,42.59
2023-09-06T12:25:54.082Z,42.78
2023-09-06T12:28:56.663Z,42.62
2023-09-06T12:32:00.548Z,42.49
2023-09-06T12:35:05.196Z,42.50
2023-09-06T12:38:09.498Z,42.67
2023-09-06T12:41:11.959Z,42.62
2023-09-06T12:44:14.620Z,42.55
2023-09-06T12:47:17.580Z,42.47
2023-09-06T12:50:20.785Z,42.58
2023-09-06T12:53:24.949Z,42.71
2023-09-06T12:56:27.451Z,42.51
2023-09-06T12:59:29.852Z,42.46
2023-09-06T13:02:32.347Z,42.66
2023-09-06T13:05:34.965Z,42.38
2023-09-06T13:08:38.857Z,42.41
2023-09-06T13:11:41.260Z,42.50
2023-09-06T13:14:43.664Z,42.43
2023-09-06T13:17:46.166Z,42.43
2023-09-06T13:20:50.504Z,42.45
2023-09-06T13:23:54.221Z,42.42
2023-09-06T13:26:56.609Z,42.33
2023-09-06T13:29:59.014Z,42.40
2023-09-06T13:33:01.445Z,42.30
2023-09-06T13:36:05.403Z,42.19
2023-09-06T13:39:11.054Z,42.29
2023-09-06T13:42:13.550Z,42.15
2023-09-06T13:45:16.159Z,42.22
2023-09-06T13:48:18.708Z,42.32
2023-09-06T13:51:21.332Z,42.36
2023-09-06T13:54:25.100Z,42.10
2023-09-06T13:57:29.423Z,42.11
2023-09-06T14:00:31.790Z,42.29
2023-09-06T14:03:34.348Z,42.25
2023-09-06T14:06:38.688Z,42.15
2023-09-06T14:09:42.583Z,42.12
2023-09-06T14:12:45.071Z,41.87
2023-09-06T14:15:47.477Z,42.14
2023-09-06T14:18:49.971Z,42.06
2023-09-06T14:21:53.225Z,42.03
2023-09-06T14:24:57.224Z,42.09
2023-09-06T14:27:59.655Z,41.96
2023-09-06T14:31:02.125Z,42.00
2023-09-06T14:34:04.598Z,41.84
2023-09-06T14:37:07.093Z,41.97
2023-09-06T14:40:11.737Z,42.07
2023-09-06T14:43:14.923Z,41.80
2023-09-06T14:46:17.886Z,41.82
2023-09-06T14:49:21.284Z,42.02
2023-09-06T14:52:23.798Z,42.08
2023-09-06T14:55:29.009Z,41.90
2023-09-06T14:58:31.681Z,41.87
2023-09-06T15:01:34.719Z,41.89
2023-09-06T15:04:38.435Z,41.64
2023-09-06T15:07:40.900Z,41.72
2023-09-06T15:10:45.647Z,41.76
2023-09-06T15:13:48.065Z,41.85
2023-09-06T15:16:50.478Z,41.90
2023-09-06T15:19:52.959Z,41.84
2023-09-06T15:22:55.383Z,41.75
2023-09-06T15:25:59.348Z,41.84
2023-09-06T15:29:01.805Z,41.79
2023-09-06T15:32:06.949Z,41.84
2023-09-06T15:35:09.709Z,41.86
2023-09-06T15:38:12.888Z,41.77
2023-09-06T15:41:18.605Z,41.71
2023-09-06T15:44:21.557Z,41.84
2023-09-06T15:47:24.149Z,41.84
2023-09-06T15:50:26.628Z,41.83
2023-09-06T15:53:29.121Z,41.72
2023-09-06T15:56:32.952Z,41.78
2023-09-06T15:59:35.402Z,41.80
2023-09-06T16:02:38.738Z,42.03
2023-09-06T16:05:41.513Z,41.81
2023-09-06T16:08:44.121Z,41.83
2023-09-06T16:11:55.274Z,41.80
2023-09-06T16:14:57.683Z,41.69
2023-09-06T16:18:00.146Z,41.86
2023-09-06T16:21:02.813Z,41.72
2023-09-06T16:24:06.412Z,41.77
2023-09-06T16:27:10.344Z,41.91
2023-09-06T16:30:14.324Z,41.83
2023-09-06T16:33:18.172Z,41.64
2023-09-06T16:36:20.665Z,41.59
2023-09-06T16:39:23.274Z,41.93
2023-09-06T16:42:27.041Z,41.73
2023-09-06T16:45:29.983Z,42.03
2023-09-06T16:48:32.754Z,42.05
2023-09-06T16:51:35.737Z,41.93
2023-09-06T16:54:38.270Z,42.03
2023-09-06T16:57:41.988Z,42.04
2023-09-06T17:00:44.941Z,42.23
2023-09-06T17:03:47.448Z,42.21
2023-09-06T17:06:49.868Z,42.16
2023-09-06T17:09:52.303Z,42.29
2023-09-06T17:12:56.054Z,42.29
2023-09-06T17:15:58.472Z,42.13
2023-09-06T17:19:00.961Z,42.29
2023-09-06T17:22:03.338Z,42.31
2023-09-06T17:25:10.137Z,42.28
2023-09-06T17:28:14.152Z,42.43
2023-09-06T17:31:18.141Z,42.30
2023-09-06T17:34:20.626Z,42.51
2023-09-06T17:37:23.017Z,42.30
2023-09-06T17:40:25.643Z,42.41
2023-09-06T17:43:29.487Z,42.36
2023-09-06T17:46:31.864Z,42.58
2023-09-06T17:49:35.112Z,42.30
2023-09-06T17:52:38.473Z,42.52
2023-09-06T17:55:41.294Z,42.61
2023-09-06T17:58:45.506Z,42.32
2023-09-06T18:01:48.095Z,42.47
2023-09-06T18:04:50.731Z,42.49
2023-09-06T18:07:53.571Z,42.46
2023-09-06T18:10:56.421Z,42.61
2023-09-06T18:14:00.234Z,42.60
2023-09-06T18:17:02.720Z,42.60
2023-09-06T18:20:08.115Z,42.76
2023-09-06T18:23:10.961Z,42.62
2023-09-06T18:26:13.796Z,42.67
2023-09-06T18:29:18.232Z,42.75
2023-09-06T18:32:20.716Z,42.95
2023-09-06T18:35:23.306Z,42.75
2023-09-06T18:38:25.903Z,42.76
2023-09-06T18:41:28.339Z,42.92
2023-09-06T18:44:32.674Z,42.67
2023-09-06T18:47:35.294Z,42.85
2023-09-06T18:50:40.334Z,42.78
2023-09-06T18:53:42.778Z,42.36
2023-09-06T18:56:45.148Z,42.21
2023-09-06T18:59:49.000Z,42.29
2023-09-06T19:02:51.889Z,42.05
2023-09-06T19:05:54.374Z,42.10
2023-09-06T19:08:57.685Z,42.12
2023-09-06T19:12:00.136Z,42.09
2023-09-06T19:15:05.158Z,41.94
2023-09-06T19:18:08.140Z,42.31
2023-09-06T19:21:10.653Z,42.21
2023-09-06T19:24:13.094Z,42.17
2023-09-06T19:27:15.612Z,42.27
2023-09-06T19:30:19.549Z,42.48
2023-09-06T19:35:14.761Z,42.76
2023-09-06T19:38:21.378Z,42.75
2023-09-06T19:41:24.318Z,42.59
2023-09-06T19:44:26.900Z,42.75
2023-09-06T19:47:29.633Z,42.58
2023-09-06T19:50:33.540Z,42.67
2023-09-06T19:53:36.200Z,42.79
2023-09-06T19:56:38.737Z,42.66
2023-09-06T19:59:41.328Z,42.89
2023-09-06T20:02:44.130Z,42.88
2023-09-06T20:05:49.861Z,42.82
2023-09-06T20:08:53.431Z,42.83
2023-09-06T20:11:56.038Z,42.98
2023-09-06T20:14:58.647Z,42.76
2023-09-06T20:18:01.956Z,42.86
2023-09-06T20:21:08.987Z,42.78
2023-09-06T20:24:11.547Z,42.77
2023-09-06T20:27:14.591Z,42.71
2023-09-06T20:30:17.229Z,42.63
2023-09-06T20:33:21.653Z,42.81
2023-09-06T20:36:26.984Z,42.69
2023-09-06T20:39:29.580Z,42.49
2023-09-06T20:42:32.162Z,42.78
2023-09-06T20:45:35.596Z,42.54
2023-09-06T20:48:41.409Z,42.59
2023-09-06T20:51:46.037Z,42.48
2023-09-06T20:54:48.766Z,42.27
2023-09-06T20:57:51.490Z,42.37
2023-09-06T21:00:56.590Z,42.32
2023-09-06T21:03:59.361Z,42.60
2023-09-06T21:07:04.424Z,42.91
2023-09-06T21:10:07.803Z,43.13
2023-09-06T21:13:10.362Z,42.97
2023-09-06T21:16:13.164Z,43.29
2023-09-06T21:19:15.717Z,43.01
2023-09-06T21:22:19.667Z,43.20
2023-09-06T21:25:23.187Z,43.14
2023-09-06T21:28:25.854Z,43.42
2023-09-06T21:31:28.588Z,43.22
2023-09-06T21:34:31.250Z,43.32
2023-09-06T21:37:35.276Z,43.15
2023-09-06T21:40:41.745Z,43.21
2023-09-06T21:43:44.257Z,43.27
2023-09-06T21:46:46.842Z,43.33
2023-09-06T21:49:49.553Z,43.28
2023-09-06T21:52:54.395Z,43.34
2023-09-06T21:55:56.916Z,43.42
2023-09-06T21:59:00.545Z,43.42
2023-09-06T22:02:03.204Z,43.47
2023-09-06T22:05:06.636Z,43.46
2023-09-06T22:08:10.604Z,43.21
2023-09-06T22:11:13.209Z,43.26
2023-09-06T22:14:18.082Z,43.61
2023-09-06T22:17:20.635Z,43.27
2023-09-06T22:20:24.383Z,43.54
2023-09-06T22:23:28.392Z,43.31
2023-09-06T22:26:30.908Z,43.44
2023-09-06T22:29:33.440Z,43.31
2023-09-06T22:32:35.995Z,43.45
2023-09-06T22:35:38.606Z,43.50
2023-09-06T22:38:42.495Z,43.31
2023-09-06T22:41:45.052Z,43.66
2023-09-06T22:44:47.625Z,43.56
2023-09-06T22:47:50.178Z,43.37
2023-09-06T22:50:52.760Z,43.32
2023-09-06T22:53:56.645Z,43.40
2023-09-06T22:56:59.183Z,43.29
2023-09-06T23:00:02.181Z,43.34
2023-09-06T23:03:05.293Z,43.19
2023-09-06T23:06:11.127Z,43.60
2023-09-06T23:09:19.915Z,43.39
2023-09-06T23:12:23.354Z,43.59
2023-09-06T23:15:27.992Z,43.54
2023-09-06T23:18:32.568Z,43.38
2023-09-06T23:21:39.274Z,43.41
2023-09-06T23:24:45.951Z,43.38
2023-09-06T23:27:48.755Z,43.47
2023-09-06T23:30:55.402Z,43.46
2023-09-06T23:34:00.397Z,43.46
2023-09-06T23:37:06.234Z,43.42
2023-09-06T23:40:21.297Z,43.48
2023-09-06T23:43:24.562Z,43.47
2023-09-06T23:46:27.635Z,43.49
2023-09-06T23:49:32.870Z,43.47
2023-09-06T23:52:35.540Z,43.62
2023-09-06T23:55:39.649Z,43.58
2023-09-06T23:58:42.252Z,43.49
